createdAt,value
2018-06-29T00:01:59.771Z,69.50
2018-06-29T00:04:30.219Z,70.27
2018-06-29T00:07:00.563Z,67.87
2018-06-29T00:09:30.665Z,73.07
2018-06-29T00:12:01.542Z,68.63
2018-06-29T00:14:31.690Z,69.97
2018-06-29T00:17:01.806Z,65.33
2018-06-29T00:19:32.159Z,68.27
2018-06-29T00:22:03.359Z,67.07
2018-06-29T00:24:33.571Z,67.73
2018-06-29T00:27:04.476Z,66.17
2018-06-29T00:29:35.104Z,68.07
2018-06-29T00:32:07.426Z,66.97
2018-06-29T00:34:38.157Z,67.90
2018-06-29T00:37:08.770Z,68.40
2018-06-29T00:39:38.885Z,65.83
2018-06-29T00:42:09.283Z,70.60
2018-06-29T00:44:39.764Z,65.57
2018-06-29T00:47:10.076Z,70.50
2018-06-29T00:49:40.029Z,69.00
2018-06-29T00:52:10.655Z,65.67
2018-06-29T00:54:41.433Z,65.90
2018-06-29T00:57:11.877Z,64.37
2018-06-29T00:59:42.243Z,66.20
2018-06-29T01:02:12.726Z,64.37
2018-06-29T01:04:43.150Z,65.00
2018-06-29T01:07:13.733Z,63.33
2018-06-29T01:09:44.335Z,64.13
2018-06-29T01:12:14.587Z,65.67
2018-06-29T01:14:44.782Z,63.97
2018-06-29T01:17:15.079Z,65.83
2018-06-29T01:19:45.211Z,64.43
2018-06-29T01:22:15.361Z,66.10
2018-06-29T01:24:45.574Z,65.07
2018-06-29T01:27:16.154Z,65.00
2018-06-29T01:29:46.787Z,63.53
2018-06-29T01:32:17.650Z,64.17
2018-06-29T01:34:48.402Z,64.63
2018-06-29T01:37:18.806Z,63.70
2018-06-29T01:39:49.333Z,64.57
2018-06-29T01:42:19.297Z,65.73
2018-06-29T01:44:49.819Z,65.27
2018-06-29T01:47:20.363Z,63.47
2018-06-29T01:49:50.863Z,62.43
2018-06-29T01:52:21.025Z,65.27
2018-06-29T01:54:51.410Z,63.37
2018-06-29T01:57:21.812Z,68.73
2018-06-29T01:59:52.148Z,64.80
2018-06-29T02:02:22.383Z,65.57
2018-06-29T02:04:52.622Z,62.33
2018-06-29T02:07:23.094Z,61.97
2018-06-29T02:09:53.332Z,64.97
2018-06-29T02:12:23.661Z,63.60
2018-06-29T02:14:53.854Z,63.83
2018-06-29T02:17:24.056Z,65.20
2018-06-29T02:19:54.302Z,64.53
2018-06-29T02:22:24.400Z,83.73
2018-06-29T02:24:54.787Z,63.67
2018-06-29T02:27:24.811Z,66.77
2018-06-29T02:29:54.844Z,62.87
2018-06-29T02:32:24.995Z,62.57
2018-06-29T02:34:55.047Z,62.87
2018-06-29T02:37:25.108Z,64.43
2018-06-29T02:39:55.601Z,63.97
2018-06-29T02:42:26.037Z,62.43
2018-06-29T02:44:56.310Z,64.17
2018-06-29T02:47:26.634Z,62.90
2018-06-29T02:49:56.950Z,62.40
2018-06-29T02:52:27.110Z,64.87
2018-06-29T02:54:57.271Z,63.67
2018-06-29T02:57:27.403Z,65.27
2018-06-29T02:59:57.542Z,63.70
2018-06-29T03:02:28.012Z,63.60
2018-06-29T03:04:58.264Z,63.03
2018-06-29T03:07:28.591Z,62.57
2018-06-29T03:09:58.770Z,64.20
2018-06-29T03:12:29.146Z,60.70
2018-06-29T03:14:59.490Z,62.87
2018-06-29T03:17:29.897Z,63.87
2018-06-29T03:20:00.447Z,62.33
2018-06-29T03:22:31.184Z,64.73
2018-06-29T03:25:01.294Z,61.57
2018-06-29T03:27:32.001Z,62.47
2018-06-29T03:30:02.499Z,64.43
2018-06-29T03:32:32.587Z,63.43
2018-06-29T03:35:02.765Z,62.30
2018-06-29T03:37:33.288Z,60.50
2018-06-29T03:40:03.485Z,62.17
2018-06-29T03:42:34.069Z,63.20
2018-06-29T03:45:04.378Z,61.83
2018-06-29T03:47:34.425Z,63.10
2018-06-29T03:50:05.103Z,64.87
2018-06-29T03:52:35.482Z,61.13
2018-06-29T03:55:05.791Z,63.67
2018-06-29T03:57:35.883Z,61.60
2018-06-29T04:00:06.324Z,62.77
2018-06-29T04:02:36.482Z,62.17
2018-06-29T04:05:06.812Z,64.40
2018-06-29T04:07:36.989Z,62.43
2018-06-29T04:10:07.322Z,64.83
2018-06-29T04:12:37.599Z,63.33
2018-06-29T04:15:08.282Z,61.27
2018-06-29T04:17:38.285Z,63.73
2018-06-29T04:20:08.675Z,64.57
2018-06-29T04:22:39.417Z,62.30
2018-06-29T04:25:09.945Z,64.63
2018-06-29T04:27:40.229Z,62.87
2018-06-29T04:30:11.050Z,65.03
2018-06-29T04:32:41.540Z,64.27
2018-06-29T04:35:12.062Z,62.87
2018-06-29T04:37:42.659Z,63.03
2018-06-29T04:40:12.911Z,62.50
2018-06-29T04:42:43.361Z,65.63
2018-06-29T04:45:13.512Z,61.90
2018-06-29T04:47:43.824Z,67.47
2018-06-29T04:50:14.112Z,63.10
2018-06-29T04:52:44.492Z,64.57
2018-06-29T04:55:15.032Z,64.47
2018-06-29T04:57:45.618Z,65.87
2018-06-29T05:00:16.472Z,67.00
2018-06-29T05:02:46.622Z,68.67
2018-06-29T05:05:16.878Z,65.73
2018-06-29T05:07:47.529Z,68.80
2018-06-29T05:10:17.661Z,66.23
2018-06-29T05:12:48.434Z,67.83
2018-06-29T05:15:18.786Z,66.17
2018-06-29T05:17:49.121Z,66.00
2018-06-29T05:20:19.485Z,64.87
2018-06-29T05:22:49.842Z,64.43
2018-06-29T05:25:20.136Z,64.60
2018-06-29T05:27:50.753Z,68.00
2018-06-29T05:30:21.049Z,65.87
2018-06-29T05:32:51.482Z,66.30
2018-06-29T05:35:21.892Z,64.43
2018-06-29T05:37:52.568Z,67.03
2018-06-29T05:40:22.957Z,65.50
2018-06-29T05:42:53.632Z,63.20
2018-06-29T05:45:23.890Z,69.40
2018-06-29T05:47:54.208Z,67.40
2018-06-29T05:50:24.425Z,68.40
2018-06-29T05:52:55.357Z,64.57
2018-06-29T05:55:25.864Z,69.50
2018-06-29T05:57:56.074Z,66.93
2018-06-29T06:00:26.314Z,67.33
2018-06-29T06:02:56.639Z,65.40
2018-06-29T06:05:27.124Z,70.60
2018-06-29T06:07:57.198Z,68.93
2018-06-29T06:10:27.541Z,68.23
2018-06-29T06:12:57.875Z,70.70
2018-06-29T06:15:28.296Z,69.70
2018-06-29T06:17:58.697Z,71.40
2018-06-29T06:20:30.615Z,69.37
2018-06-29T06:28:07.623Z,73.97
2018-06-29T06:30:38.294Z,71.13
2018-06-29T06:33:08.548Z,70.33
2018-06-29T06:35:39.037Z,70.97
2018-06-29T06:38:10.128Z,69.23
2018-06-29T06:40:40.621Z,69.57
2018-06-29T06:43:11.246Z,70.43
2018-06-29T06:45:41.633Z,70.10
2018-06-29T06:48:12.510Z,70.83
2018-06-29T06:50:43.628Z,68.37
2018-06-29T06:53:14.434Z,68.83
2018-06-29T06:55:44.658Z,73.80
2018-06-29T06:58:14.940Z,72.67
2018-06-29T07:00:45.231Z,152.80
2018-06-29T07:03:15.681Z,73.37
2018-06-29T07:05:46.393Z,71.70
2018-06-29T07:08:16.765Z,73.10
2018-06-29T07:10:48.783Z,68.57
2018-06-29T07:13:20.241Z,71.00
2018-06-29T07:15:51.119Z,75.57
2018-06-29T07:18:21.823Z,68.10
2018-06-29T07:20:52.546Z,73.27
2018-06-29T07:23:23.652Z,68.10
2018-06-29T07:25:54.167Z,71.30
2018-06-29T07:28:24.585Z,70.80
2018-06-29T07:30:56.393Z,68.70
2018-06-29T07:33:27.228Z,67.40
2018-06-29T07:35:57.956Z,70.43
2018-06-29T07:38:28.392Z,69.13
2018-06-29T07:40:58.809Z,69.00
2018-06-29T07:43:28.937Z,74.17
2018-06-29T07:45:59.176Z,73.07
2018-06-29T07:48:30.397Z,75.00
2018-06-29T07:51:01.062Z,73.20
2018-06-29T07:53:38.704Z,71.37
2018-06-29T07:56:09.326Z,72.43
2018-06-29T07:58:39.886Z,71.87
2018-06-29T08:01:11.664Z,70.17
2018-06-29T08:03:41.747Z,72.67
2018-06-29T08:06:12.375Z,70.10
2018-06-29T08:08:42.941Z,72.83
2018-06-29T08:11:13.816Z,69.40
2018-06-29T08:13:44.410Z,72.17
2018-06-29T08:16:15.008Z,70.13
2018-06-29T08:18:45.685Z,70.50
2018-06-29T08:21:17.013Z,71.37
2018-06-29T08:23:47.777Z,71.57
2018-06-29T08:26:26.044Z,70.43
2018-06-29T08:29:03.088Z,70.97
2018-06-29T08:31:33.705Z,69.30
2018-06-29T08:34:04.302Z,72.53
2018-06-29T08:36:35.183Z,71.13
2018-06-29T08:39:08.499Z,69.77
2018-06-29T08:41:38.850Z,69.33
2018-06-29T08:44:09.865Z,70.60
2018-06-29T08:46:40.949Z,73.50
2018-06-29T08:49:11.306Z,70.17
2018-06-29T08:51:41.823Z,71.13
2018-06-29T08:54:12.432Z,68.97
2018-06-29T08:56:42.749Z,73.13
2018-06-29T08:59:13.337Z,72.50
2018-06-29T09:01:43.716Z,70.60
2018-06-29T09:04:14.455Z,69.47
2018-06-29T09:06:46.082Z,69.40
2018-06-29T09:09:16.404Z,70.17
2018-06-29T09:11:48.227Z,74.70
2018-06-29T09:14:18.536Z,70.30
2018-06-29T09:16:49.417Z,72.07
2018-06-29T09:19:20.650Z,70.60
2018-06-29T09:21:51.667Z,71.93
2018-06-29T09:24:22.451Z,69.53
2018-06-29T09:26:53.035Z,74.53
2018-06-29T09:29:23.885Z,70.93
2018-06-29T09:31:55.097Z,69.70
2018-06-29T09:34:25.897Z,70.40
2018-06-29T09:36:56.451Z,71.97
2018-06-29T09:39:26.825Z,70.67
2018-06-29T09:41:57.783Z,70.97
2018-06-29T09:44:28.675Z,68.27
2018-06-29T09:46:59.873Z,69.57
2018-06-29T09:49:30.617Z,68.63
2018-06-29T09:52:01.641Z,70.43
2018-06-29T09:54:32.531Z,69.90
2018-06-29T09:57:03.656Z,69.00
2018-06-29T09:59:35.312Z,71.10
2018-06-29T10:02:06.768Z,70.93
2018-06-29T10:04:36.956Z,70.00
2018-06-29T10:07:08.402Z,70.33
2018-06-29T10:09:39.150Z,92.63
2018-06-29T10:12:10.043Z,80.30
2018-06-29T10:14:41.703Z,77.63
2018-06-29T10:17:12.054Z,71.73
2018-06-29T10:19:42.763Z,73.53
2018-06-29T10:22:13.144Z,73.63
2018-06-29T10:24:43.474Z,75.17
2018-06-29T10:27:13.821Z,73.27
2018-06-29T10:29:44.301Z,71.50
2018-06-29T10:32:15.010Z,72.97
2018-06-29T10:34:45.923Z,73.03
2018-06-29T10:37:16.395Z,72.50
2018-06-29T10:39:46.907Z,69.83
2018-06-29T10:42:17.148Z,70.20
2018-06-29T10:44:47.786Z,74.73
2018-06-29T10:47:18.325Z,70.63
2018-06-29T10:49:48.586Z,71.17
2018-06-29T10:52:19.365Z,72.93
2018-06-29T10:54:50.008Z,73.47
2018-06-29T10:57:20.687Z,71.33
2018-06-29T10:59:51.199Z,73.13
2018-06-29T11:02:22.303Z,71.17
2018-06-29T11:04:53.465Z,74.13
2018-06-29T11:07:24.322Z,73.90
2018-06-29T11:09:55.032Z,72.00
2018-06-29T11:12:25.335Z,74.40
2018-06-29T11:14:56.728Z,73.57
2018-06-29T11:17:27.458Z,72.13
2018-06-29T11:19:57.616Z,72.37
2018-06-29T11:22:28.062Z,73.50
2018-06-29T11:24:58.843Z,72.27
2018-06-29T11:27:30.161Z,72.87
2018-06-29T11:30:00.477Z,73.37
2018-06-29T11:32:31.155Z,72.03
2018-06-29T11:35:03.157Z,70.77
2018-06-29T11:37:33.578Z,71.03
2018-06-29T11:40:04.277Z,73.37
2018-06-29T11:42:34.525Z,70.43
2018-06-29T11:45:05.439Z,72.47
2018-06-29T11:47:36.486Z,73.37
2018-06-29T11:50:08.089Z,73.50
2018-06-29T11:52:39.649Z,70.33
2018-06-29T11:55:11.388Z,73.97
2018-06-29T11:57:42.016Z,76.30
2018-06-29T12:00:12.581Z,75.20
2018-06-29T12:02:43.080Z,74.60
2018-06-29T12:05:14.219Z,75.93
2018-06-29T12:07:44.683Z,73.67
2018-06-29T12:10:15.309Z,74.93
2018-06-29T12:12:45.567Z,72.07
2018-06-29T12:15:15.990Z,74.83
2018-06-29T12:17:49.121Z,72.87
2018-06-29T12:20:19.557Z,75.47
2018-06-29T12:22:49.918Z,73.27
2018-06-29T12:25:20.265Z,74.23
2018-06-29T12:27:50.623Z,71.27
2018-06-29T12:30:20.853Z,73.63
2018-06-29T12:32:51.094Z,72.90
2018-06-29T12:35:21.346Z,72.00
2018-06-29T12:37:51.838Z,73.03
2018-06-29T12:40:22.719Z,77.00
2018-06-29T12:42:53.290Z,72.90
2018-06-29T12:45:23.549Z,71.83
2018-06-29T12:47:53.785Z,73.50
2018-06-29T12:50:24.065Z,75.17
2018-06-29T12:52:55.191Z,72.37
2018-06-29T12:55:25.638Z,74.17
2018-06-29T12:57:56.137Z,73.33
2018-06-29T13:00:26.616Z,76.67
2018-06-29T13:02:57.843Z,73.77
2018-06-29T13:05:28.711Z,75.30
2018-06-29T13:07:59.949Z,73.80
2018-06-29T13:10:30.401Z,75.00
2018-06-29T13:13:00.945Z,73.73
2018-06-29T13:15:32.145Z,75.37
2018-06-29T13:18:02.566Z,74.53
2018-06-29T13:20:33.352Z,73.53
2018-06-29T13:23:04.026Z,73.43
2018-06-29T13:25:34.574Z,73.07
2018-06-29T13:28:06.049Z,77.43
2018-06-29T13:30:37.877Z,73.77
2018-06-29T13:33:08.135Z,74.93
2018-06-29T13:35:41.353Z,72.67
2018-06-29T13:38:13.168Z,76.47
2018-06-29T13:40:44.471Z,73.40
2018-06-29T13:43:17.175Z,73.63
2018-06-29T13:45:50.019Z,71.33
2018-06-29T13:48:23.651Z,74.50
2018-06-29T13:50:55.708Z,74.37
2018-06-29T13:53:29.961Z,74.80
2018-06-29T13:56:02.207Z,78.00
2018-06-29T13:58:34.814Z,75.90
2018-06-29T14:01:05.791Z,77.80
2018-06-29T14:03:37.372Z,77.47
2018-06-29T14:06:10.132Z,77.30
2018-06-29T14:08:42.327Z,78.73
2018-06-29T14:11:14.056Z,79.77
2018-06-29T14:13:46.429Z,77.80
2018-06-29T14:16:16.249Z,79.23
2018-06-29T14:18:48.429Z,77.17
2018-06-29T14:21:20.570Z,80.57
2018-06-29T14:23:51.722Z,82.72
2018-06-29T14:26:24.319Z,79.42
2018-06-29T14:28:57.421Z,80.22
2018-06-29T14:31:28.381Z,80.57
2018-06-29T14:34:00.996Z,80.97
2018-06-29T14:36:32.809Z,89.28
2018-06-29T14:39:05.364Z,79.77
2018-06-29T14:41:36.668Z,83.95
2018-06-29T14:44:10.594Z,83.07
2018-06-29T14:46:42.670Z,82.02
2018-06-29T14:49:13.521Z,80.53
2018-06-29T14:51:43.765Z,82.08
2018-06-29T14:54:14.397Z,85.15
2018-06-29T14:56:51.825Z,80.72
2018-06-29T14:59:22.663Z,84.13
2018-06-29T15:01:53.051Z,83.58
2018-06-29T15:04:24.628Z,82.12
2018-06-29T15:06:55.741Z,82.35
2018-06-29T15:09:26.265Z,83.15
2018-06-29T15:11:56.715Z,84.65
2018-06-29T15:14:27.362Z,83.20
2018-06-29T15:16:57.984Z,86.25
2018-06-29T15:19:29.111Z,84.58
2018-06-29T15:21:59.149Z,88.40
2018-06-29T15:24:29.822Z,80.47
2018-06-29T15:27:00.773Z,84.37
2018-06-29T15:29:31.305Z,82.35
2018-06-29T15:32:01.809Z,83.00
2018-06-29T15:34:32.573Z,81.87
2018-06-29T15:37:03.382Z,81.47
2018-06-29T15:39:33.942Z,79.65
2018-06-29T15:42:04.090Z,80.17
2018-06-29T15:44:34.564Z,80.75
2018-06-29T15:47:05.742Z,80.80
2018-06-29T15:49:36.675Z,84.07
2018-06-29T15:52:07.343Z,81.65
2018-06-29T15:54:38.386Z,80.67
2018-06-29T15:57:08.799Z,83.03
2018-06-29T15:59:39.176Z,81.45
2018-06-29T16:02:09.758Z,83.00
2018-06-29T16:04:40.297Z,82.70
2018-06-29T16:07:11.993Z,82.00
2018-06-29T16:09:43.388Z,81.92
2018-06-29T16:12:15.094Z,85.22
2018-06-29T16:14:45.601Z,82.00
2018-06-29T16:17:16.241Z,86.55
2018-06-29T16:19:46.602Z,81.55
2018-06-29T16:22:17.019Z,80.12
2018-06-29T16:24:47.430Z,83.95
2018-06-29T16:27:17.715Z,82.65
2018-06-29T16:29:48.025Z,80.97
2018-06-29T16:32:18.467Z,82.70
2018-06-29T16:34:48.865Z,83.72
2018-06-29T16:37:19.762Z,80.07
2018-06-29T16:39:50.710Z,79.35
2018-06-29T16:42:20.937Z,81.67
2018-06-29T16:44:52.100Z,82.67
2018-06-29T16:47:22.516Z,84.00
2018-06-29T16:49:55.240Z,83.22
2018-06-29T16:52:25.970Z,86.22
2018-06-29T16:54:56.656Z,86.70
2018-06-29T16:57:27.745Z,84.83
2018-06-29T16:59:57.801Z,83.70
2018-06-29T17:02:28.102Z,82.42
2018-06-29T17:04:59.186Z,86.15
2018-06-29T17:07:30.087Z,85.80
2018-06-29T17:10:00.396Z,83.90
2018-06-29T17:12:30.535Z,82.70
2018-06-29T17:15:01.531Z,83.72
2018-06-29T17:17:31.808Z,83.70
2018-06-29T17:20:02.316Z,82.67
2018-06-29T17:22:32.828Z,83.45
2018-06-29T17:25:04.133Z,85.10
2018-06-29T17:27:34.621Z,82.82
2018-06-29T17:30:08.151Z,86.05
2018-06-29T17:32:38.546Z,85.95
2018-06-29T17:35:09.367Z,82.80
2018-06-29T17:37:39.619Z,85.28
2018-06-29T17:40:09.958Z,85.20
2018-06-29T17:42:40.533Z,82.55
2018-06-29T17:45:11.217Z,83.75
2018-06-29T17:47:41.686Z,85.80
2018-06-29T17:50:13.165Z,82.92
2018-06-29T17:52:43.589Z,84.13
2018-06-29T17:55:14.170Z,84.35
2018-06-29T17:57:44.688Z,83.82
2018-06-29T18:00:16.199Z,88.87
2018-06-29T18:02:46.238Z,83.30
2018-06-29T18:05:16.683Z,87.37
2018-06-29T18:07:47.009Z,88.78
2018-06-29T18:10:17.279Z,89.03
2018-06-29T18:12:47.657Z,84.10
2018-06-29T18:15:17.808Z,88.73
2018-06-29T18:17:48.310Z,90.03
2018-06-29T18:20:18.694Z,85.60
2018-06-29T18:22:49.207Z,87.63
2018-06-29T18:25:20.032Z,85.30
2018-06-29T18:27:50.069Z,85.90
2018-06-29T18:30:20.313Z,85.80
2018-06-29T18:32:51.968Z,86.17
2018-06-29T18:35:23.568Z,87.23
2018-06-29T18:37:53.885Z,86.93
2018-06-29T18:40:26.627Z,85.70
2018-06-29T18:42:59.357Z,83.13
2018-06-29T18:45:36.078Z,87.93
2018-06-29T18:48:07.769Z,94.50
2018-06-29T18:50:38.753Z,84.80
2018-06-29T18:53:09.904Z,83.17
2018-06-29T18:55:41.037Z,85.87
2018-06-29T18:58:11.197Z,86.47
2018-06-29T19:00:44.535Z,149.23
2018-06-29T19:03:15.867Z,86.40
2018-06-29T19:05:46.705Z,84.60
2018-06-29T19:08:19.469Z,85.63
2018-06-29T19:10:50.516Z,91.23
2018-06-29T19:13:20.954Z,87.87
2018-06-29T19:15:51.305Z,82.50
2018-06-29T19:18:22.451Z,87.03
2018-06-29T19:20:53.163Z,88.23
2018-06-29T19:23:23.541Z,82.07
2018-06-29T19:25:53.938Z,83.87
2018-06-29T19:28:24.418Z,83.73
2018-06-29T19:30:55.000Z,83.03
2018-06-29T19:33:25.557Z,85.33
2018-06-29T19:35:55.998Z,82.27
2018-06-29T19:38:26.521Z,86.27
2018-06-29T19:40:56.758Z,87.27
2018-06-29T19:43:28.383Z,84.20
2018-06-29T19:45:58.665Z,83.37
2018-06-29T19:48:29.333Z,86.07
2018-06-29T19:50:59.661Z,81.43
2018-06-29T19:53:30.010Z,85.10
2018-06-29T19:56:00.412Z,81.93
2018-06-29T19:58:31.149Z,81.13
2018-06-29T20:01:06.064Z,80.07
2018-06-29T20:03:36.451Z,78.23
2018-06-29T20:06:09.511Z,77.37
2018-06-29T20:08:39.876Z,80.23
2018-06-29T20:11:13.551Z,80.87
2018-06-29T20:13:46.264Z,78.47
2018-06-29T20:16:16.406Z,79.87
2018-06-29T20:18:50.213Z,77.97
2018-06-29T20:21:22.921Z,77.77
2018-06-29T20:23:53.740Z,77.70
2018-06-29T20:26:24.173Z,78.50
2018-06-29T20:28:56.731Z,77.37
2018-06-29T20:31:26.954Z,79.50
2018-06-29T20:33:57.653Z,78.57
2018-06-29T20:36:28.340Z,78.83
2018-06-29T20:38:58.495Z,75.87
2018-06-29T20:41:29.245Z,79.20
2018-06-29T20:44:00.126Z,76.27
2018-06-29T20:46:31.046Z,78.00
2018-06-29T20:49:01.270Z,75.13
2018-06-29T20:51:33.275Z,79.60
2018-06-29T20:54:07.386Z,81.23
2018-06-29T20:56:37.685Z,75.83
2018-06-29T20:59:08.339Z,76.33
2018-06-29T21:01:39.368Z,79.97
2018-06-29T21:04:10.318Z,76.37
2018-06-29T21:06:40.498Z,77.47
2018-06-29T21:09:21.860Z,77.73
2018-06-29T21:11:52.648Z,77.50
2018-06-29T21:14:28.840Z,76.53
2018-06-29T21:17:05.595Z,77.70
2018-06-29T21:19:41.105Z,76.87
2018-06-29T21:22:11.518Z,75.60
2018-06-29T21:24:41.845Z,76.73
2018-06-29T21:27:13.536Z,75.40
2018-06-29T21:29:45.665Z,81.17
2018-06-29T21:32:17.765Z,78.63
2018-06-29T21:34:51.062Z,77.60
2018-06-29T21:37:21.793Z,76.57
2018-06-29T21:39:52.001Z,72.13
2018-06-29T21:42:22.113Z,72.60
2018-06-29T21:44:54.354Z,71.33
2018-06-29T21:47:24.942Z,71.57
2018-06-29T21:49:55.333Z,71.60
2018-06-29T21:52:25.750Z,72.13
2018-06-29T21:54:57.400Z,70.03
2018-06-29T21:57:29.804Z,73.53
2018-06-29T22:00:02.437Z,71.63
2018-06-29T22:02:33.643Z,71.67
2018-06-29T22:05:03.819Z,69.47
2018-06-29T22:07:35.716Z,72.43
2018-06-29T22:10:09.153Z,73.27
2018-06-29T22:12:39.935Z,72.17
2018-06-29T22:15:15.114Z,71.07
2018-06-29T22:17:49.054Z,71.87
2018-06-29T22:20:21.779Z,71.50
2018-06-29T22:22:52.512Z,70.17
2018-06-29T22:25:23.399Z,74.47
2018-06-29T22:27:53.651Z,71.20
2018-06-29T22:30:24.065Z,66.47
2018-06-29T22:32:55.188Z,71.17
2018-06-29T22:35:29.306Z,71.27
2018-06-29T22:38:04.286Z,77.97
2018-06-29T22:40:37.469Z,68.93
2018-06-29T22:43:10.868Z,75.77
2018-06-29T22:45:41.853Z,70.40
2018-06-29T22:48:12.175Z,72.90
2018-06-29T22:50:47.709Z,72.17
2018-06-29T22:53:24.935Z,72.07
2018-06-29T22:55:57.441Z,71.53
2018-06-29T22:58:30.297Z,66.87
2018-06-29T23:01:02.264Z,118.60
2018-06-29T23:03:39.540Z,70.80
2018-06-29T23:06:11.613Z,70.83
2018-06-29T23:08:42.628Z,73.17
2018-06-29T23:11:13.618Z,69.70
2018-06-29T23:13:44.786Z,69.97
2018-06-29T23:16:16.491Z,69.50
2018-06-29T23:18:47.060Z,66.17
2018-06-29T23:21:18.108Z,66.60
2018-06-29T23:23:49.076Z,66.27
2018-06-29T23:26:23.503Z,71.37
2018-06-29T23:28:53.633Z,70.50
2018-06-29T23:31:24.924Z,68.57
2018-06-29T23:33:56.337Z,71.00
2018-06-29T23:36:27.306Z,68.90
2018-06-29T23:38:57.715Z,68.17
2018-06-29T23:41:27.808Z,64.93
2018-06-29T23:43:58.007Z,64.77
2018-06-29T23:46:30.995Z,68.20
2018-06-29T23:49:01.672Z,66.93
2018-06-29T23:51:31.950Z,63.97
2018-06-29T23:54:02.601Z,65.47
2018-06-29T23:56:32.986Z,66.90
2018-06-29T23:59:03.562Z,66.80
